WetterOnline ( https://www.wetteronline.ch )

Wetter aktuell Bad Neustadt/Saale

Aktuelles Wetter: Bad Kissingen (266m)

6-stündlich | Neueste Meldungen
Ortszeit Temperatur Wetter
Di, 23.04. 20:00 17.7° C bedeckt
Di, 23.04. 14:00 19.5° C leicht bewölkt
Di, 23.04. 8:00 11.2° C leicht bewölkt
Di, 23.04. 2:00 10.3° C wolkenlos
Mo, 22.04. 20:00 18.5° C wolkig
Mo, 22.04. 14:00 21.2° C leicht bewölkt
Mo, 22.04. 8:00 8.1° C wolkenlos
Mo, 22.04. 2:00 11.1° C wolkenlos
Ortszeit Temperatur Wetter
Di, 23.04. 20:30 17.3° C bedeckt
Di, 23.04. 20:10 17.4° C bedeckt
Di, 23.04. 20:00 17.7° C bedeckt
Di, 23.04. 19:50 17.7° C bedeckt
Di, 23.04. 19:40 17.7° C bedeckt
Di, 23.04. 19:30 17.7° C bedeckt
Di, 23.04. 19:00 18.4° C bedeckt
Di, 23.04. 18:30 18.9° C wolkig
Di, 23.04. 18:00 19.4° C wolkig
Di, 23.04. 17:30 20.0° C wolkig
Ortszeit Relative Feuchte Sichtweite
Di, 23.04. 20:00 51% 40 km
Di, 23.04. 14:00 41% >70 km
Di, 23.04. 8:00 59% 50 km
Di, 23.04. 2:00 53% 55 km
Mo, 22.04. 20:00 34% 65 km
Mo, 22.04. 14:00 27% 35 km
Mo, 22.04. 8:00 64% 50 km
Mo, 22.04. 2:00 56% 55 km
Ortszeit Relative Feuchte Sichtweite
Di, 23.04. 20:30 53% 35 km
Di, 23.04. 20:10 53% -
Di, 23.04. 20:00 51% 40 km
Di, 23.04. 19:50 51% -
Di, 23.04. 19:40 51% -
Di, 23.04. 19:30 51% 45 km
Di, 23.04. 19:00 50% 30 km
Di, 23.04. 18:30 48% 50 km
Di, 23.04. 18:00 46% 45 km
Di, 23.04. 17:30 41% 40 km
Ortszeit Niederschlagsmenge Niederschlagsart
Di, 23.04. 20:00 0.0 l/m2 in 12 Std. -
Di, 23.04. 14:00 0.0 l/m2 in 6 Std. -
Di, 23.04. 8:00 0.0 l/m2 in 12 Std. -
Di, 23.04. 2:00 0.0 l/m2 in 6 Std. -
Mo, 22.04. 20:00 0.0 l/m2 in 12 Std. -
Mo, 22.04. 14:00 0.0 l/m2 in 6 Std. -
Mo, 22.04. 8:00 0.0 l/m2 in 12 Std. -
Mo, 22.04. 2:00 0.0 l/m2 in 6 Std. -
Ortszeit Niederschlagsmenge Niederschlagsart
Di, 23.04. 20:30 0.0 l/m2 in 1 Std. -
Di, 23.04. 20:10 keine Meldung -
Di, 23.04. 20:00 0.0 l/m2 in 1 Std. -
Di, 23.04. 19:50 keine Meldung -
Di, 23.04. 19:40 keine Meldung -
Di, 23.04. 19:30 0.0 l/m2 in 1 Std. -
Di, 23.04. 19:00 0.0 l/m2 in 1 Std. -
Di, 23.04. 18:30 0.0 l/m2 in 1 Std. -
Di, 23.04. 18:00 0.0 l/m2 in 1 Std. -
Di, 23.04. 17:30 0.0 l/m2 in 1 Std. -
Ortszeit Stärke Spitze Richtung
km/h Bft. km/h Grad Sektor
Di, 23.04. 20:00 9 2 39 60° NO
Di, 23.04. 14:00 20 4 41 70° O
Di, 23.04. 8:00 18 3 32 30° NO
Di, 23.04. 2:00 13 3 43 360° N
Mo, 22.04. 20:00 22 4 43 50° NO
Mo, 22.04. 14:00 22 4 40 80° O
Mo, 22.04. 8:00 7 2 13 350° N
Mo, 22.04. 2:00 7 2 18 10° N
Ortszeit Stärke Spitze Richtung
km/h Bft. km/h Grad Sektor
Di, 23.04. 20:30 11 2 22 40° NO
Di, 23.04. 20:10 11 2 - 60° NO
Di, 23.04. 20:00 9 2 26 60° NO
Di, 23.04. 19:50 9 2 - 60° NO
Di, 23.04. 19:40 11 2 - 70° O
Di, 23.04. 19:30 11 2 25 70° O
Di, 23.04. 19:00 14 3 32 80° O
Di, 23.04. 18:30 17 3 31 90° O
Di, 23.04. 18:00 18 3 29 100° O
Di, 23.04. 17:30 14 3 29 120° SO
Ortszeit Untergrenze Bedeckung Gattung
total tief tief mittel hoch
Di, 23.04. 20:00 3300 m 8/8 8/8 - - -
Di, 23.04. 14:00 8400 m 8/8 0/8 - - -
Di, 23.04. 8:00 9000 m 8/8 0/8 - - -
Di, 23.04. 2:00 - 0/8 0/8 - - -
Mo, 22.04. 20:00 8100 m 8/8 0/8 - - -
Mo, 22.04. 14:00 9000 m 8/8 0/8 - - -
Mo, 22.04. 8:00 - 0/8 0/8 - - -
Mo, 22.04. 2:00 - 0/8 0/8 - - -
Ortszeit Bedeckungsgrad in Achtel und Wolkenuntergrenze
Di, 23.04. 20:30 8(3000m)
Di, 23.04. 20:10 7(3000m) 8(3900m)
Di, 23.04. 20:00 6(3300m) 7(4200m) 8(5100m)
Di, 23.04. 19:50 6(3300m) 7(4200m) 8(5100m)
Di, 23.04. 19:40 5(3300m) 7(4200m) 8(5100m)
Di, 23.04. 19:30 7(3300m) 8(3900m) 8(5400m)
Di, 23.04. 19:00 4(3300m) 8(3900m) 8(6000m)
Di, 23.04. 18:30 1(4200m) 8(8100m) 8(8100m)
Di, 23.04. 18:00 3(3600m) 8(8100m)
Di, 23.04. 17:30 1(3600m) 8(8100m) 8(9000m)
Ortszeit Luftdruck NN (hPa) Tendenz (hPa in 3 Std.)
Di, 23.04. 20:00 1000 + 0,2
Di, 23.04. 14:00 1000 - 1,1
Di, 23.04. 8:00 1003 - 0,9
Di, 23.04. 2:00 1006 - 1,5
Mo, 22.04. 20:00 1006 - 0,5
Mo, 22.04. 14:00 1009 - 2,7
Mo, 22.04. 8:00 1015 - 0,7
Mo, 22.04. 2:00 1017 - 0,6
Ortszeit Luftdruck NN (hPa) Tendenz (hPa in 3 Std.)
Di, 23.04. 20:30 1000 + 0,3
Di, 23.04. 20:10 1000 keine Meldung
Di, 23.04. 20:00 1000 + 0,2
Di, 23.04. 19:50 1000 keine Meldung
Di, 23.04. 19:40 1000 keine Meldung
Di, 23.04. 19:30 999 0,0
Di, 23.04. 19:00 999 - 0,1
Di, 23.04. 18:30 999 - 0,3
Di, 23.04. 18:00 999 - 0,3
Di, 23.04. 17:30 999 - 0,6
Ortszeit Schneehöhe (cm)
Di, 23.04. 20:00 0
Di, 23.04. 14:00 0
Di, 23.04. 8:00 0
Di, 23.04. 2:00 0
Mo, 22.04. 20:00 0
Mo, 22.04. 14:00 0
Mo, 22.04. 8:00 0
Mo, 22.04. 2:00 0
Ortszeit Schneehöhe (cm)
Di, 23.04. 20:30 0
Di, 23.04. 20:10 0
Di, 23.04. 20:00 0
Di, 23.04. 19:50 0
Di, 23.04. 19:40 0
Di, 23.04. 19:30 0
Di, 23.04. 19:00 0
Di, 23.04. 18:30 0
Di, 23.04. 18:00 0
Di, 23.04. 17:30 0
Link zu dieser Seite / Seite empfehlen

Das Wetter in ...